sensor_id;sensor_type;location;lat;lon;timestamp;P1;durP1;ratioP1;P2;durP2;ratioP2
20910;SDS011;10615;42.702;23.314;2023-04-24T00:00:16;14.38;;;6.15;;
20910;SDS011;10615;42.702;23.314;2023-04-24T00:01:17;8.57;;;5.20;;
20910;SDS011;10615;42.702;23.314;2023-04-24T00:02:19;8.73;;;5.60;;
20910;SDS011;10615;42.702;23.314;2023-04-24T00:03:19;8.82;;;5.70;;
20910;SDS011;10615;42.702;23.314;2023-04-24T00:04:21;8.52;;;5.55;;
20910;SDS011;10615;42.702;23.314;2023-04-24T00:05:21;10.85;;;5.50;;
20910;SDS011;10615;42.702;23.314;2023-04-24T00:06:22;9.68;;;5.53;;
20910;SDS011;10615;42.702;23.314;2023-04-24T00:07:23;8.35;;;5.18;;
20910;SDS011;10615;42.702;23.314;2023-04-24T00:08:24;6.72;;;5.20;;
20910;SDS011;10615;42.702;23.314;2023-04-24T00:09:25;11.30;;;5.53;;
20910;SDS011;10615;42.702;23.314;2023-04-24T00:10:26;7.80;;;5.20;;
20910;SDS011;10615;42.702;23.314;2023-04-24T00:11:26;8.88;;;5.55;;
20910;SDS011;10615;42.702;23.314;2023-04-24T00:12:27;7.43;;;5.03;;
20910;SDS011;10615;42.702;23.314;2023-04-24T00:13:28;9.60;;;5.03;;
20910;SDS011;10615;42.702;23.314;2023-04-24T00:14:29;6.72;;;4.95;;
20910;SDS011;10615;42.702;23.314;2023-04-24T00:15:30;9.13;;;5.10;;
20910;SDS011;10615;42.702;23.314;2023-04-24T00:16:31;8.13;;;4.55;;
20910;SDS011;10615;42.702;23.314;2023-04-24T00:17:32;8.77;;;5.20;;
20910;SDS011;10615;42.702;23.314;2023-04-24T00:18:32;8.50;;;5.05;;
20910;SDS011;10615;42.702;23.314;2023-04-24T00:19:33;6.65;;;5.03;;
20910;SDS011;10615;42.702;23.314;2023-04-24T00:20:34;11.88;;;5.28;;
20910;SDS011;10615;42.702;23.314;2023-04-24T00:21:37;7.88;;;4.75;;
20910;SDS011;10615;42.702;23.314;2023-04-24T00:22:38;6.72;;;4.45;;
20910;SDS011;10615;42.702;23.314;2023-04-24T00:23:39;8.25;;;4.88;;
20910;SDS011;10615;42.702;23.314;2023-04-24T00:24:40;9.65;;;4.90;;
20910;SDS011;10615;42.702;23.314;2023-04-24T00:25:41;7.45;;;4.53;;
20910;SDS011;10615;42.702;23.314;2023-04-24T00:26:41;10.23;;;4.80;;
20910;SDS011;10615;42.702;23.314;2023-04-24T00:27:42;6.63;;;4.47;;
20910;SDS011;10615;42.702;23.314;2023-04-24T00:28:43;8.35;;;4.85;;
20910;SDS011;10615;42.702;23.314;2023-04-24T00:29:43;9.63;;;4.43;;
20910;SDS011;10615;42.702;23.314;2023-04-24T00:30:44;10.13;;;4.80;;
20910;SDS011;10615;42.702;23.314;2023-04-24T00:31:45;10.05;;;4.88;;
20910;SDS011;10615;42.702;23.314;2023-04-24T00:32:46;6.38;;;4.38;;
20910;SDS011;10615;42.702;23.314;2023-04-24T00:33:46;7.85;;;4.97;;
20910;SDS011;10615;42.702;23.314;2023-04-24T00:34:47;7.75;;;4.53;;
20910;SDS011;10615;42.702;23.314;2023-04-24T00:35:48;8.77;;;4.50;;
20910;SDS011;10615;42.702;23.314;2023-04-24T00:36:48;6.90;;;4.60;;
20910;SDS011;10615;42.702;23.314;2023-04-24T00:37:52;8.18;;;4.75;;
20910;SDS011;10615;42.702;23.314;2023-04-24T00:38:53;7.80;;;4.80;;
20910;SDS011;10615;42.702;23.314;2023-04-24T00:39:54;8.65;;;4.78;;
20910;SDS011;10615;42.702;23.314;2023-04-24T00:40:55;6.68;;;4.97;;
20910;SDS011;10615;42.702;23.314;2023-04-24T00:41:55;7.22;;;4.70;;
20910;SDS011;10615;42.702;23.314;2023-04-24T00:42:56;8.38;;;5.13;;
20910;SDS011;10615;42.702;23.314;2023-04-24T00:43:57;7.55;;;4.95;;
20910;SDS011;10615;42.702;23.314;2023-04-24T00:44:58;8.00;;;5.05;;
20910;SDS011;10615;42.702;23.314;2023-04-24T00:45:59;8.40;;;4.70;;
20910;SDS011;10615;42.702;23.314;2023-04-24T00:47:01;8.75;;;4.82;;
20910;SDS011;10615;42.702;23.314;2023-04-24T00:48:02;8.40;;;4.40;;
20910;SDS011;10615;42.702;23.314;2023-04-24T00:49:04;8.90;;;4.88;;
20910;SDS011;10615;42.702;23.314;2023-04-24T00:50:07;7.40;;;4.95;;
20910;SDS011;10615;42.702;23.314;2023-04-24T00:51:08;8.95;;;4.50;;
20910;SDS011;10615;42.702;23.314;2023-04-24T00:52:09;7.88;;;4.45;;
20910;SDS011;10615;42.702;23.314;2023-04-24T00:53:10;7.53;;;4.68;;
20910;SDS011;10615;42.702;23.314;2023-04-24T00:54:12;7.25;;;5.05;;
20910;SDS011;10615;42.702;23.314;2023-04-24T00:55:13;7.35;;;4.60;;
20910;SDS011;10615;42.702;23.314;2023-04-24T00:56:13;5.80;;;4.57;;
20910;SDS011;10615;42.702;23.314;2023-04-24T00:57:14;7.78;;;4.53;;
20910;SDS011;10615;42.702;23.314;2023-04-24T00:58:16;8.50;;;4.90;;
20910;SDS011;10615;42.702;23.314;2023-04-24T00:59:16;7.00;;;4.55;;
20910;SDS011;10615;42.702;23.314;2023-04-24T01:00:17;10.23;;;4.60;;
20910;SDS011;10615;42.702;23.314;2023-04-24T01:01:19;8.32;;;4.95;;
20910;SDS011;10615;42.702;23.314;2023-04-24T01:02:21;7.28;;;4.70;;
20910;SDS011;10615;42.702;23.314;2023-04-24T01:03:26;6.55;;;4.65;;
20910;SDS011;10615;42.702;23.314;2023-04-24T01:04:30;6.30;;;4.50;;
20910;SDS011;10615;42.702;23.314;2023-04-24T01:05:30;6.47;;;4.60;;
20910;SDS011;10615;42.702;23.314;2023-04-24T01:06:32;7.72;;;4.50;;
20910;SDS011;10615;42.702;23.314;2023-04-24T01:07:34;5.70;;;4.38;;
20910;SDS011;10615;42.702;23.314;2023-04-24T01:08:35;8.90;;;4.80;;
20910;SDS011;10615;42.702;23.314;2023-04-24T01:09:45;7.40;;;4.72;;
20910;SDS011;10615;42.702;23.314;2023-04-24T01:10:49;7.43;;;4.85;;
20910;SDS011;10615;42.702;23.314;2023-04-24T01:11:53;5.53;;;4.70;;
20910;SDS011;10615;42.702;23.314;2023-04-24T01:12:54;7.72;;;4.90;;
20910;SDS011;10615;42.702;23.314;2023-04-24T01:13:56;7.18;;;4.68;;
20910;SDS011;10615;42.702;23.314;2023-04-24T01:14:56;8.90;;;5.00;;
20910;SDS011;10615;42.702;23.314;2023-04-24T01:15:57;9.23;;;5.60;;
20910;SDS011;10615;42.702;23.314;2023-04-24T01:16:58;6.97;;;4.55;;
20910;SDS011;10615;42.702;23.314;2023-04-24T01:17:59;6.70;;;4.63;;
20910;SDS011;10615;42.702;23.314;2023-04-24T01:19:00;6.95;;;4.65;;
20910;SDS011;10615;42.702;23.314;2023-04-24T01:20:00;10.63;;;4.80;;
20910;SDS011;10615;42.702;23.314;2023-04-24T01:21:04;6.55;;;4.57;;
20910;SDS011;10615;42.702;23.314;2023-04-24T01:22:08;5.20;;;4.70;;
20910;SDS011;10615;42.702;23.314;2023-04-24T01:23:14;5.93;;;4.55;;
20910;SDS011;10615;42.702;23.314;2023-04-24T01:24:15;8.82;;;4.75;;
20910;SDS011;10615;42.702;23.314;2023-04-24T01:25:16;9.38;;;4.75;;
20910;SDS011;10615;42.702;23.314;2023-04-24T01:26:16;9.75;;;5.25;;
20910;SDS011;10615;42.702;23.314;2023-04-24T01:27:20;7.97;;;5.10;;
20910;SDS011;10615;42.702;23.314;2023-04-24T01:28:20;7.45;;;4.68;;
20910;SDS011;10615;42.702;23.314;2023-04-24T01:29:21;7.70;;;4.78;;
20910;SDS011;10615;42.702;23.314;2023-04-24T01:30:22;5.38;;;4.47;;
20910;SDS011;10615;42.702;23.314;2023-04-24T01:31:23;6.82;;;4.63;;
20910;SDS011;10615;42.702;23.314;2023-04-24T01:32:24;9.35;;;4.45;;
20910;SDS011;10615;42.702;23.314;2023-04-24T01:33:25;8.68;;;5.35;;
20910;SDS011;10615;42.702;23.314;2023-04-24T01:34:26;6.35;;;4.57;;
20910;SDS011;10615;42.702;23.314;2023-04-24T01:35:27;7.53;;;4.70;;
20910;SDS011;10615;42.702;23.314;2023-04-24T01:36:28;7.32;;;5.00;;
20910;SDS011;10615;42.702;23.314;2023-04-24T01:37:31;10.82;;;5.10;;
20910;SDS011;10615;42.702;23.314;2023-04-24T01:38:33;8.90;;;5.05;;
20910;SDS011;10615;42.702;23.314;2023-04-24T01:39:33;9.02;;;4.82;;
20910;SDS011;10615;42.702;23.314;2023-04-24T01:40:34;10.30;;;5.80;;
20910;SDS011;10615;42.702;23.314;2023-04-24T01:41:35;6.65;;;5.05;;
20910;SDS011;10615;42.702;23.314;2023-04-24T01:42:36;8.85;;;4.75;;
20910;SDS011;10615;42.702;23.314;2023-04-24T01:43:37;8.73;;;4.82;;
20910;SDS011;10615;42.702;23.314;2023-04-24T01:44:38;8.38;;;5.05;;
20910;SDS011;10615;42.702;23.314;2023-04-24T01:45:38;7.97;;;5.50;;
20910;SDS011;10615;42.702;23.314;2023-04-24T01:46:39;9.75;;;5.70;;
20910;SDS011;10615;42.702;23.314;2023-04-24T01:47:40;7.00;;;4.95;;
20910;SDS011;10615;42.702;23.314;2023-04-24T01:48:41;9.73;;;5.20;;
20910;SDS011;10615;42.702;23.314;2023-04-24T01:49:42;7.82;;;5.30;;
20910;SDS011;10615;42.702;23.314;2023-04-24T01:50:42;6.85;;;4.72;;
20910;SDS011;10615;42.702;23.314;2023-04-24T01:51:43;8.27;;;5.65;;
20910;SDS011;10615;42.702;23.314;2023-04-24T01:52:44;7.95;;;4.88;;
20910;SDS011;10615;42.702;23.314;2023-04-24T01:53:45;8.57;;;5.30;;
20910;SDS011;10615;42.702;23.314;2023-04-24T01:54:46;7.07;;;5.20;;
20910;SDS011;10615;42.702;23.314;2023-04-24T01:55:46;8.90;;;5.80;;
20910;SDS011;10615;42.702;23.314;2023-04-24T01:56:47;8.75;;;5.13;;
20910;SDS011;10615;42.702;23.314;2023-04-24T01:57:48;7.85;;;5.68;;
20910;SDS011;10615;42.702;23.314;2023-04-24T01:58:50;9.50;;;5.20;;
20910;SDS011;10615;42.702;23.314;2023-04-24T01:59:52;8.07;;;5.22;;
20910;SDS011;10615;42.702;23.314;2023-04-24T02:00:53;6.65;;;5.32;;
20910;SDS011;10615;42.702;23.314;2023-04-24T02:01:56;10.98;;;5.47;;
20910;SDS011;10615;42.702;23.314;2023-04-24T02:02:57;8.88;;;5.32;;
20910;SDS011;10615;42.702;23.314;2023-04-24T02:03:57;8.20;;;5.45;;
20910;SDS011;10615;42.702;23.314;2023-04-24T02:04:58;7.40;;;5.68;;
20910;SDS011;10615;42.702;23.314;2023-04-24T02:05:59;10.75;;;5.60;;
20910;SDS011;10615;42.702;23.314;2023-04-24T02:06:59;5.75;;;5.15;;
20910;SDS011;10615;42.702;23.314;2023-04-24T02:08:00;9.30;;;5.22;;
20910;SDS011;10615;42.702;23.314;2023-04-24T02:09:01;7.43;;;5.72;;
20910;SDS011;10615;42.702;23.314;2023-04-24T02:10:03;7.60;;;5.60;;
20910;SDS011;10615;42.702;23.314;2023-04-24T02:11:08;8.25;;;5.65;;
20910;SDS011;10615;42.702;23.314;2023-04-24T02:12:09;6.57;;;5.28;;
20910;SDS011;10615;42.702;23.314;2023-04-24T02:13:10;8.40;;;6.00;;
20910;SDS011;10615;42.702;23.314;2023-04-24T02:14:11;9.43;;;5.90;;
20910;SDS011;10615;42.702;23.314;2023-04-24T02:15:11;9.50;;;5.50;;
20910;SDS011;10615;42.702;23.314;2023-04-24T02:16:12;10.80;;;5.93;;
20910;SDS011;10615;42.702;23.314;2023-04-24T02:17:13;9.50;;;5.65;;
20910;SDS011;10615;42.702;23.314;2023-04-24T02:18:15;6.93;;;5.22;;
20910;SDS011;10615;42.702;23.314;2023-04-24T02:19:16;8.93;;;5.70;;
20910;SDS011;10615;42.702;23.314;2023-04-24T02:20:17;6.88;;;5.45;;
20910;SDS011;10615;42.702;23.314;2023-04-24T02:21:18;8.77;;;5.53;;
20910;SDS011;10615;42.702;23.314;2023-04-24T02:22:18;8.18;;;5.63;;
20910;SDS011;10615;42.702;23.314;2023-04-24T02:23:19;13.18;;;5.57;;
20910;SDS011;10615;42.702;23.314;2023-04-24T02:24:20;8.25;;;5.45;;
20910;SDS011;10615;42.702;23.314;2023-04-24T02:25:20;8.85;;;5.80;;
20910;SDS011;10615;42.702;23.314;2023-04-24T02:26:22;9.15;;;5.55;;
20910;SDS011;10615;42.702;23.314;2023-04-24T02:27:22;6.60;;;4.85;;
20910;SDS011;10615;42.702;23.314;2023-04-24T02:28:23;8.30;;;5.28;;
20910;SDS011;10615;42.702;23.314;2023-04-24T02:29:23;8.68;;;5.45;;
20910;SDS011;10615;42.702;23.314;2023-04-24T02:30:24;10.95;;;5.53;;
20910;SDS011;10615;42.702;23.314;2023-04-24T02:31:25;10.25;;;5.65;;
20910;SDS011;10615;42.702;23.314;2023-04-24T02:32:25;9.45;;;5.22;;
20910;SDS011;10615;42.702;23.314;2023-04-24T02:33:26;11.52;;;5.30;;
20910;SDS011;10615;42.702;23.314;2023-04-24T02:34:27;9.88;;;5.15;;
20910;SDS011;10615;42.702;23.314;2023-04-24T02:35:27;6.57;;;5.78;;
20910;SDS011;10615;42.702;23.314;2023-04-24T02:36:28;9.68;;;5.78;;
20910;SDS011;10615;42.702;23.314;2023-04-24T02:37:30;11.00;;;5.47;;
20910;SDS011;10615;42.702;23.314;2023-04-24T02:38:30;7.38;;;5.60;;
20910;SDS011;10615;42.702;23.314;2023-04-24T02:39:31;10.30;;;5.85;;
20910;SDS011;10615;42.702;23.314;2023-04-24T02:40:32;7.25;;;5.55;;
20910;SDS011;10615;42.702;23.314;2023-04-24T02:41:32;10.38;;;5.82;;
20910;SDS011;10615;42.702;23.314;2023-04-24T02:42:33;10.98;;;5.78;;
20910;SDS011;10615;42.702;23.314;2023-04-24T02:43:34;8.18;;;5.65;;
20910;SDS011;10615;42.702;23.314;2023-04-24T02:44:35;7.72;;;5.35;;
20910;SDS011;10615;42.702;23.314;2023-04-24T02:45:35;8.18;;;5.93;;
20910;SDS011;10615;42.702;23.314;2023-04-24T02:46:37;9.30;;;5.80;;
20910;SDS011;10615;42.702;23.314;2023-04-24T02:47:38;10.73;;;5.78;;
20910;SDS011;10615;42.702;23.314;2023-04-24T02:48:39;9.43;;;5.80;;
20910;SDS011;10615;42.702;23.314;2023-04-24T02:49:40;11.85;;;5.90;;
20910;SDS011;10615;42.702;23.314;2023-04-24T02:50:40;10.15;;;5.68;;
20910;SDS011;10615;42.702;23.314;2023-04-24T02:51:41;12.95;;;6.05;;
20910;SDS011;10615;42.702;23.314;2023-04-24T02:52:42;10.52;;;6.07;;
20910;SDS011;10615;42.702;23.314;2023-04-24T02:53:42;10.88;;;6.10;;
20910;SDS011;10615;42.702;23.314;2023-04-24T02:54:43;15.90;;;5.80;;
20910;SDS011;10615;42.702;23.314;2023-04-24T02:55:44;10.70;;;5.93;;
20910;SDS011;10615;42.702;23.314;2023-04-24T02:56:45;10.68;;;6.20;;
20910;SDS011;10615;42.702;23.314;2023-04-24T02:57:46;9.07;;;5.80;;
20910;SDS011;10615;42.702;23.314;2023-04-24T02:58:47;11.57;;;5.60;;
20910;SDS011;10615;42.702;23.314;2023-04-24T02:59:47;9.93;;;5.55;;
20910;SDS011;10615;42.702;23.314;2023-04-24T03:00:48;10.40;;;5.40;;
20910;SDS011;10615;42.702;23.314;2023-04-24T03:01:49;12.43;;;5.78;;
20910;SDS011;10615;42.702;23.314;2023-04-24T03:02:49;13.73;;;5.55;;
20910;SDS011;10615;42.702;23.314;2023-04-24T03:03:50;8.10;;;5.50;;
20910;SDS011;10615;42.702;23.314;2023-04-24T03:04:51;9.07;;;6.03;;
20910;SDS011;10615;42.702;23.314;2023-04-24T03:05:51;10.13;;;5.65;;
20910;SDS011;10615;42.702;23.314;2023-04-24T03:06:52;7.32;;;5.75;;
20910;SDS011;10615;42.702;23.314;2023-04-24T03:07:54;12.95;;;6.10;;
20910;SDS011;10615;42.702;23.314;2023-04-24T03:08:55;9.07;;;5.85;;
20910;SDS011;10615;42.702;23.314;2023-04-24T03:09:55;10.32;;;6.18;;
20910;SDS011;10615;42.702;23.314;2023-04-24T03:10:58;9.65;;;6.20;;
20910;SDS011;10615;42.702;23.314;2023-04-24T03:11:58;12.23;;;5.60;;
20910;SDS011;10615;42.702;23.314;2023-04-24T03:13:00;11.75;;;5.82;;
20910;SDS011;10615;42.702;23.314;2023-04-24T03:14:01;10.50;;;5.97;;
20910;SDS011;10615;42.702;23.314;2023-04-24T03:15:02;9.45;;;6.38;;
20910;SDS011;10615;42.702;23.314;2023-04-24T03:16:03;8.45;;;6.03;;
20910;SDS011;10615;42.702;23.314;2023-04-24T03:17:04;12.45;;;5.97;;
20910;SDS011;10615;42.702;23.314;2023-04-24T03:18:05;11.02;;;6.47;;
20910;SDS011;10615;42.702;23.314;2023-04-24T03:19:06;14.45;;;6.32;;
20910;SDS011;10615;42.702;23.314;2023-04-24T03:20:07;8.50;;;5.80;;
20910;SDS011;10615;42.702;23.314;2023-04-24T03:21:08;11.80;;;5.88;;
20910;SDS011;10615;42.702;23.314;2023-04-24T03:22:09;11.48;;;6.00;;
20910;SDS011;10615;42.702;23.314;2023-04-24T03:23:11;10.25;;;5.85;;
20910;SDS011;10615;42.702;23.314;2023-04-24T03:24:11;9.40;;;5.80;;
20910;SDS011;10615;42.702;23.314;2023-04-24T03:25:12;12.10;;;6.35;;
20910;SDS011;10615;42.702;23.314;2023-04-24T03:26:13;7.68;;;6.45;;
20910;SDS011;10615;42.702;23.314;2023-04-24T03:27:13;13.05;;;6.40;;
20910;SDS011;10615;42.702;23.314;2023-04-24T03:28:14;8.60;;;5.97;;
20910;SDS011;10615;42.702;23.314;2023-04-24T03:29:15;8.48;;;6.95;;
20910;SDS011;10615;42.702;23.314;2023-04-24T03:30:15;11.70;;;6.32;;
20910;SDS011;10615;42.702;23.314;2023-04-24T03:31:16;8.77;;;6.45;;
20910;SDS011;10615;42.702;23.314;2023-04-24T03:32:17;12.07;;;6.53;;
20910;SDS011;10615;42.702;23.314;2023-04-24T03:33:17;11.18;;;7.00;;
20910;SDS011;10615;42.702;23.314;2023-04-24T03:34:18;9.82;;;6.65;;
20910;SDS011;10615;42.702;23.314;2023-04-24T03:35:19;12.20;;;6.97;;
20910;SDS011;10615;42.702;23.314;2023-04-24T03:36:21;12.60;;;7.20;;
20910;SDS011;10615;42.702;23.314;2023-04-24T03:37:22;11.05;;;7.00;;
20910;SDS011;10615;42.702;23.314;2023-04-24T03:38:23;13.15;;;7.18;;
20910;SDS011;10615;42.702;23.314;2023-04-24T03:39:23;16.17;;;7.78;;
20910;SDS011;10615;42.702;23.314;2023-04-24T03:40:25;8.77;;;6.53;;
20910;SDS011;10615;42.702;23.314;2023-04-24T03:41:25;12.27;;;7.32;;
20910;SDS011;10615;42.702;23.314;2023-04-24T03:42:26;15.02;;;7.55;;
20910;SDS011;10615;42.702;23.314;2023-04-24T03:43:27;11.50;;;7.40;;
20910;SDS011;10615;42.702;23.314;2023-04-24T03:44:28;12.45;;;7.20;;
20910;SDS011;10615;42.702;23.314;2023-04-24T03:45:28;15.00;;;7.63;;
20910;SDS011;10615;42.702;23.314;2023-04-24T03:46:29;13.80;;;7.90;;
20910;SDS011;10615;42.702;23.314;2023-04-24T03:47:30;13.80;;;8.30;;
20910;SDS011;10615;42.702;23.314;2023-04-24T03:48:30;12.48;;;7.53;;
20910;SDS011;10615;42.702;23.314;2023-04-24T03:49:31;10.90;;;7.53;;
20910;SDS011;10615;42.702;23.314;2023-04-24T03:50:32;13.85;;;8.02;;
20910;SDS011;10615;42.702;23.314;2023-04-24T03:51:32;16.88;;;7.40;;
20910;SDS011;10615;42.702;23.314;2023-04-24T03:52:33;14.57;;;7.57;;
20910;SDS011;10615;42.702;23.314;2023-04-24T03:53:33;13.88;;;7.25;;
20910;SDS011;10615;42.702;23.314;2023-04-24T03:54:34;11.13;;;7.13;;
20910;SDS011;10615;42.702;23.314;2023-04-24T03:55:35;11.93;;;7.50;;
20910;SDS011;10615;42.702;23.314;2023-04-24T03:56:35;10.18;;;7.03;;
20910;SDS011;10615;42.702;23.314;2023-04-24T03:57:36;9.93;;;6.82;;
20910;SDS011;10615;42.702;23.314;2023-04-24T03:58:37;13.18;;;6.93;;
20910;SDS011;10615;42.702;23.314;2023-04-24T03:59:37;13.68;;;7.15;;
20910;SDS011;10615;42.702;23.314;2023-04-24T04:00:38;17.13;;;7.05;;
20910;SDS011;10615;42.702;23.314;2023-04-24T04:01:40;12.50;;;6.38;;
20910;SDS011;10615;42.702;23.314;2023-04-24T04:02:40;10.90;;;6.85;;
20910;SDS011;10615;42.702;23.314;2023-04-24T04:03:41;12.45;;;6.80;;
20910;SDS011;10615;42.702;23.314;2023-04-24T04:04:42;10.27;;;6.90;;
20910;SDS011;10615;42.702;23.314;2023-04-24T04:05:43;13.48;;;6.50;;
20910;SDS011;10615;42.702;23.314;2023-04-24T04:06:43;11.63;;;6.32;;
20910;SDS011;10615;42.702;23.314;2023-04-24T04:07:44;9.63;;;6.30;;
20910;SDS011;10615;42.702;23.314;2023-04-24T04:08:45;10.95;;;6.40;;
20910;SDS011;10615;42.702;23.314;2023-04-24T04:09:45;11.18;;;5.80;;
20910;SDS011;10615;42.702;23.314;2023-04-24T04:10:46;11.48;;;5.55;;
20910;SDS011;10615;42.702;23.314;2023-04-24T04:11:47;9.65;;;5.68;;
20910;SDS011;10615;42.702;23.314;2023-04-24T04:12:48;9.75;;;6.03;;
20910;SDS011;10615;42.702;23.314;2023-04-24T04:13:48;8.32;;;5.13;;
20910;SDS011;10615;42.702;23.314;2023-04-24T04:14:49;9.45;;;5.03;;
20910;SDS011;10615;42.702;23.314;2023-04-24T04:15:50;7.75;;;4.43;;
20910;SDS011;10615;42.702;23.314;2023-04-24T04:16:50;10.02;;;4.80;;
20910;SDS011;10615;42.702;23.314;2023-04-24T04:17:51;11.30;;;4.90;;
20910;SDS011;10615;42.702;23.314;2023-04-24T04:18:52;7.57;;;4.13;;
20910;SDS011;10615;42.702;23.314;2023-04-24T04:19:52;7.90;;;4.05;;
20910;SDS011;10615;42.702;23.314;2023-04-24T04:20:53;10.77;;;5.28;;
20910;SDS011;10615;42.702;23.314;2023-04-24T04:21:54;9.63;;;4.78;;
20910;SDS011;10615;42.702;23.314;2023-04-24T04:22:56;8.55;;;5.70;;
20910;SDS011;10615;42.702;23.314;2023-04-24T04:23:56;9.85;;;4.43;;
20910;SDS011;10615;42.702;23.314;2023-04-24T04:24:57;5.90;;;4.88;;
20910;SDS011;10615;42.702;23.314;2023-04-24T04:25:57;11.82;;;5.43;;
20910;SDS011;10615;42.702;23.314;2023-04-24T04:26:58;8.48;;;6.00;;
20910;SDS011;10615;42.702;23.314;2023-04-24T04:28:00;12.00;;;5.63;;
20910;SDS011;10615;42.702;23.314;2023-04-24T04:29:01;12.85;;;6.80;;
20910;SDS011;10615;42.702;23.314;2023-04-24T04:30:03;12.57;;;6.78;;
20910;SDS011;10615;42.702;23.314;2023-04-24T04:31:05;9.25;;;6.30;;
20910;SDS011;10615;42.702;23.314;2023-04-24T04:32:07;10.50;;;5.70;;
20910;SDS011;10615;42.702;23.314;2023-04-24T04:33:08;10.38;;;6.10;;
20910;SDS011;10615;42.702;23.314;2023-04-24T04:34:10;8.50;;;6.07;;
20910;SDS011;10615;42.702;23.314;2023-04-24T04:35:11;8.82;;;5.53;;
20910;SDS011;10615;42.702;23.314;2023-04-24T04:36:12;9.85;;;5.35;;
20910;SDS011;10615;42.702;23.314;2023-04-24T04:37:13;9.23;;;5.50;;
20910;SDS011;10615;42.702;23.314;2023-04-24T04:38:14;10.02;;;5.35;;
20910;SDS011;10615;42.702;23.314;2023-04-24T04:39:16;10.18;;;4.95;;
20910;SDS011;10615;42.702;23.314;2023-04-24T04:40:18;7.60;;;4.53;;
20910;SDS011;10615;42.702;23.314;2023-04-24T04:41:19;8.63;;;5.18;;
20910;SDS011;10615;42.702;23.314;2023-04-24T04:42:20;9.30;;;4.82;;
20910;SDS011;10615;42.702;23.314;2023-04-24T04:43:21;12.65;;;4.72;;
20910;SDS011;10615;42.702;23.314;2023-04-24T04:44:21;8.70;;;4.85;;
20910;SDS011;10615;42.702;23.314;2023-04-24T04:45:23;8.20;;;5.47;;
20910;SDS011;10615;42.702;23.314;2023-04-24T04:46:24;7.93;;;4.63;;
20910;SDS011;10615;42.702;23.314;2023-04-24T04:47:26;10.73;;;5.07;;
20910;SDS011;10615;42.702;23.314;2023-04-24T04:48:28;9.38;;;4.95;;
20910;SDS011;10615;42.702;23.314;2023-04-24T04:49:31;16.98;;;5.22;;
20910;SDS011;10615;42.702;23.314;2023-04-24T04:50:32;9.07;;;5.25;;
20910;SDS011;10615;42.702;23.314;2023-04-24T04:51:34;12.88;;;5.10;;
20910;SDS011;10615;42.702;23.314;2023-04-24T04:52:34;14.45;;;5.20;;
20910;SDS011;10615;42.702;23.314;2023-04-24T04:53:35;8.15;;;5.15;;
20910;SDS011;10615;42.702;23.314;2023-04-24T04:54:36;8.60;;;5.13;;
20910;SDS011;10615;42.702;23.314;2023-04-24T04:55:37;9.43;;;5.20;;
20910;SDS011;10615;42.702;23.314;2023-04-24T04:56:37;9.30;;;5.25;;
20910;SDS011;10615;42.702;23.314;2023-04-24T04:57:39;8.68;;;6.03;;
20910;SDS011;10615;42.702;23.314;2023-04-24T04:58:39;10.73;;;5.85;;
20910;SDS011;10615;42.702;23.314;2023-04-24T04:59:40;8.82;;;5.72;;
20910;SDS011;10615;42.702;23.314;2023-04-24T05:00:41;9.70;;;5.07;;
20910;SDS011;10615;42.702;23.314;2023-04-24T05:09:54;13.15;;;5.78;;
20910;SDS011;10615;42.702;23.314;2023-04-24T05:10:55;10.05;;;6.15;;
20910;SDS011;10615;42.702;23.314;2023-04-24T05:11:55;12.50;;;5.82;;
20910;SDS011;10615;42.702;23.314;2023-04-24T05:12:56;12.02;;;5.90;;
20910;SDS011;10615;42.702;23.314;2023-04-24T05:13:57;10.52;;;5.47;;
20910;SDS011;10615;42.702;23.314;2023-04-24T05:14:57;11.85;;;5.57;;
20910;SDS011;10615;42.702;23.314;2023-04-24T05:15:58;14.30;;;5.53;;
20910;SDS011;10615;42.702;23.314;2023-04-24T05:16:59;11.75;;;5.53;;
20910;SDS011;10615;42.702;23.314;2023-04-24T05:18:00;13.27;;;5.78;;
20910;SDS011;10615;42.702;23.314;2023-04-24T05:19:01;11.05;;;5.75;;
20910;SDS011;10615;42.702;23.314;2023-04-24T05:20:03;13.50;;;6.55;;
20910;SDS011;10615;42.702;23.314;2023-04-24T05:21:05;10.18;;;6.30;;
20910;SDS011;10615;42.702;23.314;2023-04-24T05:22:06;12.43;;;6.25;;
20910;SDS011;10615;42.702;23.314;2023-04-24T05:23:07;16.20;;;6.13;;
20910;SDS011;10615;42.702;23.314;2023-04-24T05:24:07;10.98;;;6.30;;
20910;SDS011;10615;42.702;23.314;2023-04-24T05:25:08;11.93;;;6.20;;
20910;SDS011;10615;42.702;23.314;2023-04-24T05:26:09;7.40;;;5.55;;
20910;SDS011;10615;42.702;23.314;2023-04-24T05:27:09;11.73;;;6.10;;
20910;SDS011;10615;42.702;23.314;2023-04-24T05:28:10;8.63;;;5.32;;
20910;SDS011;10615;42.702;23.314;2023-04-24T05:29:11;10.32;;;5.50;;
20910;SDS011;10615;42.702;23.314;2023-04-24T05:30:11;11.70;;;6.25;;
20910;SDS011;10615;42.702;23.314;2023-04-24T05:31:12;11.43;;;6.43;;
20910;SDS011;10615;42.702;23.314;2023-04-24T05:32:13;11.88;;;7.35;;
20910;SDS011;10615;42.702;23.314;2023-04-24T05:33:14;12.88;;;6.20;;
20910;SDS011;10615;42.702;23.314;2023-04-24T05:34:15;15.73;;;8.95;;
20910;SDS011;10615;42.702;23.314;2023-04-24T05:35:16;15.05;;;8.20;;
20910;SDS011;10615;42.702;23.314;2023-04-24T05:36:18;10.07;;;6.30;;
20910;SDS011;10615;42.702;23.314;2023-04-24T05:37:19;13.13;;;7.20;;
20910;SDS011;10615;42.702;23.314;2023-04-24T05:38:20;17.58;;;8.07;;
20910;SDS011;10615;42.702;23.314;2023-04-24T05:39:21;11.38;;;5.97;;
20910;SDS011;10615;42.702;23.314;2023-04-24T05:40:21;11.88;;;6.40;;
20910;SDS011;10615;42.702;23.314;2023-04-24T05:41:22;13.20;;;7.80;;
20910;SDS011;10615;42.702;23.314;2023-04-24T05:42:23;15.68;;;8.68;;
20910;SDS011;10615;42.702;23.314;2023-04-24T05:43:25;10.90;;;6.50;;
20910;SDS011;10615;42.702;23.314;2023-04-24T05:44:25;10.30;;;7.28;;
20910;SDS011;10615;42.702;23.314;2023-04-24T05:45:26;13.80;;;8.63;;
20910;SDS011;10615;42.702;23.314;2023-04-24T05:46:27;11.70;;;7.47;;
20910;SDS011;10615;42.702;23.314;2023-04-24T05:47:28;12.57;;;6.63;;
20910;SDS011;10615;42.702;23.314;2023-04-24T05:48:29;13.93;;;6.70;;
20910;SDS011;10615;42.702;23.314;2023-04-24T05:49:30;10.85;;;5.97;;
20910;SDS011;10615;42.702;23.314;2023-04-24T05:50:31;13.80;;;9.43;;
20910;SDS011;10615;42.702;23.314;2023-04-24T05:51:32;12.27;;;7.95;;
20910;SDS011;10615;42.702;23.314;2023-04-24T05:52:33;14.18;;;9.32;;
20910;SDS011;10615;42.702;23.314;2023-04-24T05:53:33;15.90;;;12.23;;
20910;SDS011;10615;42.702;23.314;2023-04-24T05:54:34;13.45;;;9.80;;
20910;SDS011;10615;42.702;23.314;2023-04-24T05:55:35;12.18;;;7.60;;
20910;SDS011;10615;42.702;23.314;2023-04-24T05:56:36;9.77;;;6.38;;
20910;SDS011;10615;42.702;23.314;2023-04-24T05:57:37;10.95;;;6.75;;
20910;SDS011;10615;42.702;23.314;2023-04-24T05:58:38;10.43;;;5.47;;
20910;SDS011;10615;42.702;23.314;2023-04-24T05:59:40;10.43;;;6.22;;
20910;SDS011;10615;42.702;23.314;2023-04-24T06:00:40;12.50;;;7.53;;
20910;SDS011;10615;42.702;23.314;2023-04-24T06:01:42;13.43;;;6.55;;
20910;SDS011;10615;42.702;23.314;2023-04-24T06:02:43;10.88;;;6.53;;
20910;SDS011;10615;42.702;23.314;2023-04-24T06:03:44;12.77;;;6.63;;
20910;SDS011;10615;42.702;23.314;2023-04-24T06:04:45;14.30;;;10.07;;
20910;SDS011;10615;42.702;23.314;2023-04-24T06:05:45;14.57;;;7.60;;
20910;SDS011;10615;42.702;23.314;2023-04-24T06:06:46;23.58;;;20.55;;
20910;SDS011;10615;42.702;23.314;2023-04-24T06:07:50;15.50;;;9.45;;